sensor_id;sensor_type;location;lat;lon;timestamp;temperature;humidity
21481;DHT22;10902;48.158;8.634;2024-02-23T00:01:42;4.00;99.90
21481;DHT22;10902;48.158;8.634;2024-02-23T00:04:28;3.80;99.90
21481;DHT22;10902;48.158;8.634;2024-02-23T00:07:13;3.60;99.90
21481;DHT22;10902;48.158;8.634;2024-02-23T00:09:59;3.40;99.90
21481;DHT22;10902;48.158;8.634;2024-02-23T00:12:45;3.20;99.90
21481;DHT22;10902;48.158;8.634;2024-02-23T00:15:32;2.90;99.90
21481;DHT22;10902;48.158;8.634;2024-02-23T00:18:18;2.60;99.90
21481;DHT22;10902;48.158;8.634;2024-02-23T00:21:04;2.50;99.90
21481;DHT22;10902;48.158;8.634;2024-02-23T00:23:49;2.50;99.90
21481;DHT22;10902;48.158;8.634;2024-02-23T00:26:35;2.50;99.90
21481;DHT22;10902;48.158;8.634;2024-02-23T00:29:21;2.40;99.90
21481;DHT22;10902;48.158;8.634;2024-02-23T00:32:07;2.40;99.90
21481;DHT22;10902;48.158;8.634;2024-02-23T00:34:52;2.30;99.90
21481;DHT22;10902;48.158;8.634;2024-02-23T00:37:38;2.30;99.90
21481;DHT22;10902;48.158;8.634;2024-02-23T00:40:24;2.20;99.90
21481;DHT22;10902;48.158;8.634;2024-02-23T00:43:09;2.20;99.90
21481;DHT22;10902;48.158;8.634;2024-02-23T00:45:55;2.20;99.90
21481;DHT22;10902;48.158;8.634;2024-02-23T00:48:41;2.20;99.90
21481;DHT22;10902;48.158;8.634;2024-02-23T00:51:26;2.20;99.90
21481;DHT22;10902;48.158;8.634;2024-02-23T00:54:12;2.20;99.90
21481;DHT22;10902;48.158;8.634;2024-02-23T00:56:58;2.00;99.90
21481;DHT22;10902;48.158;8.634;2024-02-23T00:59:43;2.00;99.90
21481;DHT22;10902;48.158;8.634;2024-02-23T01:02:29;2.10;99.90
21481;DHT22;10902;48.158;8.634;2024-02-23T01:05:14;2.20;99.90
21481;DHT22;10902;48.158;8.634;2024-02-23T01:08:00;2.20;99.90
21481;DHT22;10902;48.158;8.634;2024-02-23T01:10:46;2.20;99.90
21481;DHT22;10902;48.158;8.634;2024-02-23T01:13:31;2.20;99.90
21481;DHT22;10902;48.158;8.634;2024-02-23T01:16:17;2.20;99.90
21481;DHT22;10902;48.158;8.634;2024-02-23T01:19:02;2.30;99.90
21481;DHT22;10902;48.158;8.634;2024-02-23T01:21:48;2.40;99.90
21481;DHT22;10902;48.158;8.634;2024-02-23T01:24:34;2.50;99.90
21481;DHT22;10902;48.158;8.634;2024-02-23T01:27:20;2.50;99.90
21481;DHT22;10902;48.158;8.634;2024-02-23T01:30:07;2.60;99.90
21481;DHT22;10902;48.158;8.634;2024-02-23T01:32:53;2.60;99.90
21481;DHT22;10902;48.158;8.634;2024-02-23T01:35:39;2.60;99.90
21481;DHT22;10902;48.158;8.634;2024-02-23T01:38:24;2.70;99.90
21481;DHT22;10902;48.158;8.634;2024-02-23T01:41:14;2.70;99.90
21481;DHT22;10902;48.158;8.634;2024-02-23T01:44:00;2.60;99.90
21481;DHT22;10902;48.158;8.634;2024-02-23T01:46:45;2.50;99.90
21481;DHT22;10902;48.158;8.634;2024-02-23T01:49:33;2.50;99.90
21481;DHT22;10902;48.158;8.634;2024-02-23T01:52:19;2.50;99.90
21481;DHT22;10902;48.158;8.634;2024-02-23T01:55:06;2.60;99.90
21481;DHT22;10902;48.158;8.634;2024-02-23T01:57:52;2.60;99.90
21481;DHT22;10902;48.158;8.634;2024-02-23T02:00:38;2.50;99.90
21481;DHT22;10902;48.158;8.634;2024-02-23T02:03:24;2.50;99.90
21481;DHT22;10902;48.158;8.634;2024-02-23T02:06:10;2.50;99.90
21481;DHT22;10902;48.158;8.634;2024-02-23T02:08:56;2.50;99.90
21481;DHT22;10902;48.158;8.634;2024-02-23T02:11:46;2.50;99.90
21481;DHT22;10902;48.158;8.634;2024-02-23T02:14:32;2.50;99.90
21481;DHT22;10902;48.158;8.634;2024-02-23T02:17:19;2.50;99.90
21481;DHT22;10902;48.158;8.634;2024-02-23T02:20:05;2.50;99.90
21481;DHT22;10902;48.158;8.634;2024-02-23T02:22:51;2.50;99.90
21481;DHT22;10902;48.158;8.634;2024-02-23T02:25:36;2.50;99.90
21481;DHT22;10902;48.158;8.634;2024-02-23T02:28:23;2.50;99.90
21481;DHT22;10902;48.158;8.634;2024-02-23T02:31:09;2.50;99.90
21481;DHT22;10902;48.158;8.634;2024-02-23T02:33:54;2.50;99.90
21481;DHT22;10902;48.158;8.634;2024-02-23T02:36:40;2.50;99.90
21481;DHT22;10902;48.158;8.634;2024-02-23T02:39:26;2.50;99.90
21481;DHT22;10902;48.158;8.634;2024-02-23T02:42:12;2.60;99.90
21481;DHT22;10902;48.158;8.634;2024-02-23T02:44:58;2.60;99.90
21481;DHT22;10902;48.158;8.634;2024-02-23T02:47:43;2.60;99.90
21481;DHT22;10902;48.158;8.634;2024-02-23T02:50:29;2.50;99.90
21481;DHT22;10902;48.158;8.634;2024-02-23T02:53:15;2.50;99.90
21481;DHT22;10902;48.158;8.634;2024-02-23T02:56:00;2.50;99.90
21481;DHT22;10902;48.158;8.634;2024-02-23T02:58:47;2.50;99.90
21481;DHT22;10902;48.158;8.634;2024-02-23T03:01:33;2.50;99.90
21481;DHT22;10902;48.158;8.634;2024-02-23T03:04:19;2.50;99.90
21481;DHT22;10902;48.158;8.634;2024-02-23T03:07:05;2.40;99.90
21481;DHT22;10902;48.158;8.634;2024-02-23T03:09:50;2.50;99.90
21481;DHT22;10902;48.158;8.634;2024-02-23T03:12:36;2.50;99.90
21481;DHT22;10902;48.158;8.634;2024-02-23T03:15:22;2.50;99.90
21481;DHT22;10902;48.158;8.634;2024-02-23T03:18:07;2.40;99.90
21481;DHT22;10902;48.158;8.634;2024-02-23T03:20:54;2.40;99.90
21481;DHT22;10902;48.158;8.634;2024-02-23T03:23:40;2.40;99.90
21481;DHT22;10902;48.158;8.634;2024-02-23T03:26:26;2.40;99.90
21481;DHT22;10902;48.158;8.634;2024-02-23T03:29:12;2.50;99.90
21481;DHT22;10902;48.158;8.634;2024-02-23T03:31:57;2.50;99.90
21481;DHT22;10902;48.158;8.634;2024-02-23T03:34:43;2.50;99.90
21481;DHT22;10902;48.158;8.634;2024-02-23T03:37:29;2.60;99.90
21481;DHT22;10902;48.158;8.634;2024-02-23T03:40:15;2.60;99.90
21481;DHT22;10902;48.158;8.634;2024-02-23T03:43:04;2.60;99.90
21481;DHT22;10902;48.158;8.634;2024-02-23T03:45:49;2.60;99.90
21481;DHT22;10902;48.158;8.634;2024-02-23T03:48:35;2.60;99.90
21481;DHT22;10902;48.158;8.634;2024-02-23T03:51:22;2.60;99.90
21481;DHT22;10902;48.158;8.634;2024-02-23T03:54:07;2.60;99.90
21481;DHT22;10902;48.158;8.634;2024-02-23T03:56:53;2.70;99.90
21481;DHT22;10902;48.158;8.634;2024-02-23T03:59:38;2.60;99.90
21481;DHT22;10902;48.158;8.634;2024-02-23T04:02:24;2.70;99.90
21481;DHT22;10902;48.158;8.634;2024-02-23T04:05:09;2.50;99.90
21481;DHT22;10902;48.158;8.634;2024-02-23T04:07:55;2.60;99.90
21481;DHT22;10902;48.158;8.634;2024-02-23T04:10:41;2.60;99.90
21481;DHT22;10902;48.158;8.634;2024-02-23T04:13:26;2.50;99.90
21481;DHT22;10902;48.158;8.634;2024-02-23T04:16:12;2.50;99.90
21481;DHT22;10902;48.158;8.634;2024-02-23T04:18:57;2.40;99.90
21481;DHT22;10902;48.158;8.634;2024-02-23T04:21:44;2.30;99.90
21481;DHT22;10902;48.158;8.634;2024-02-23T04:24:30;2.30;99.90
21481;DHT22;10902;48.158;8.634;2024-02-23T04:27:15;2.30;99.90
21481;DHT22;10902;48.158;8.634;2024-02-23T04:30:02;2.20;99.90
21481;DHT22;10902;48.158;8.634;2024-02-23T04:32:47;2.10;99.90
21481;DHT22;10902;48.158;8.634;2024-02-23T04:35:33;2.00;99.90
21481;DHT22;10902;48.158;8.634;2024-02-23T04:38:19;2.00;99.90
21481;DHT22;10902;48.158;8.634;2024-02-23T04:41:05;1.90;99.90
21481;DHT22;10902;48.158;8.634;2024-02-23T04:43:50;1.90;99.90
21481;DHT22;10902;48.158;8.634;2024-02-23T04:46:36;2.00;99.90
21481;DHT22;10902;48.158;8.634;2024-02-23T04:49:21;2.10;99.90
21481;DHT22;10902;48.158;8.634;2024-02-23T04:52:07;2.10;99.90
21481;DHT22;10902;48.158;8.634;2024-02-23T04:54:54;2.00;99.90
21481;DHT22;10902;48.158;8.634;2024-02-23T04:57:39;2.00;99.90
21481;DHT22;10902;48.158;8.634;2024-02-23T05:00:25;1.90;99.90
21481;DHT22;10902;48.158;8.634;2024-02-23T05:03:17;1.90;99.90
21481;DHT22;10902;48.158;8.634;2024-02-23T05:06:04;2.00;99.90
21481;DHT22;10902;48.158;8.634;2024-02-23T05:08:49;2.00;99.90
21481;DHT22;10902;48.158;8.634;2024-02-23T05:11:36;2.00;99.90
21481;DHT22;10902;48.158;8.634;2024-02-23T05:14:22;2.10;99.90
21481;DHT22;10902;48.158;8.634;2024-02-23T05:17:07;2.00;99.90
21481;DHT22;10902;48.158;8.634;2024-02-23T05:19:53;2.10;99.90
21481;DHT22;10902;48.158;8.634;2024-02-23T05:22:39;2.00;99.90
21481;DHT22;10902;48.158;8.634;2024-02-23T05:25:24;2.00;99.90
21481;DHT22;10902;48.158;8.634;2024-02-23T05:28:11;2.00;99.90
21481;DHT22;10902;48.158;8.634;2024-02-23T05:30:57;1.90;99.90
21481;DHT22;10902;48.158;8.634;2024-02-23T05:33:42;1.90;99.90
21481;DHT22;10902;48.158;8.634;2024-02-23T05:36:28;2.00;99.90
21481;DHT22;10902;48.158;8.634;2024-02-23T05:39:14;1.90;99.90
21481;DHT22;10902;48.158;8.634;2024-02-23T05:42:00;1.80;99.90
21481;DHT22;10902;48.158;8.634;2024-02-23T05:44:46;1.80;99.90
21481;DHT22;10902;48.158;8.634;2024-02-23T05:47:34;1.70;99.90
21481;DHT22;10902;48.158;8.634;2024-02-23T05:50:20;1.80;99.90
21481;DHT22;10902;48.158;8.634;2024-02-23T05:53:05;1.70;99.90
21481;DHT22;10902;48.158;8.634;2024-02-23T05:55:51;1.70;99.90
21481;DHT22;10902;48.158;8.634;2024-02-23T05:58:37;1.70;99.90
21481;DHT22;10902;48.158;8.634;2024-02-23T06:01:23;1.70;99.90
21481;DHT22;10902;48.158;8.634;2024-02-23T06:04:09;1.60;99.90
21481;DHT22;10902;48.158;8.634;2024-02-23T06:06:55;1.50;99.90
21481;DHT22;10902;48.158;8.634;2024-02-23T06:09:40;1.50;99.90
21481;DHT22;10902;48.158;8.634;2024-02-23T06:12:26;1.60;99.90
21481;DHT22;10902;48.158;8.634;2024-02-23T06:15:12;1.60;99.90
21481;DHT22;10902;48.158;8.634;2024-02-23T06:17:58;1.50;99.90
21481;DHT22;10902;48.158;8.634;2024-02-23T06:20:43;1.50;99.90
21481;DHT22;10902;48.158;8.634;2024-02-23T06:23:29;1.40;99.90
21481;DHT22;10902;48.158;8.634;2024-02-23T06:26:15;1.40;99.90
21481;DHT22;10902;48.158;8.634;2024-02-23T06:29:01;1.30;99.90
21481;DHT22;10902;48.158;8.634;2024-02-23T06:31:46;1.20;99.90
21481;DHT22;10902;48.158;8.634;2024-02-23T06:34:34;1.20;99.90
21481;DHT22;10902;48.158;8.634;2024-02-23T06:37:21;1.20;99.90
21481;DHT22;10902;48.158;8.634;2024-02-23T06:40:07;1.20;99.90
21481;DHT22;10902;48.158;8.634;2024-02-23T06:42:52;1.20;99.90
21481;DHT22;10902;48.158;8.634;2024-02-23T06:45:38;1.20;99.90
21481;DHT22;10902;48.158;8.634;2024-02-23T06:48:24;1.20;99.90
21481;DHT22;10902;48.158;8.634;2024-02-23T06:51:09;1.20;99.90
21481;DHT22;10902;48.158;8.634;2024-02-23T06:53:55;1.20;99.90
21481;DHT22;10902;48.158;8.634;2024-02-23T06:56:42;1.30;99.90
21481;DHT22;10902;48.158;8.634;2024-02-23T06:59:27;1.30;99.90
21481;DHT22;10902;48.158;8.634;2024-02-23T07:02:13;1.30;99.90
21481;DHT22;10902;48.158;8.634;2024-02-23T07:04:58;1.30;99.90
21481;DHT22;10902;48.158;8.634;2024-02-23T07:07:44;1.40;99.90
21481;DHT22;10902;48.158;8.634;2024-02-23T07:10:30;1.50;99.90
21481;DHT22;10902;48.158;8.634;2024-02-23T07:13:15;1.50;99.90
21481;DHT22;10902;48.158;8.634;2024-02-23T07:16:03;1.70;99.90
21481;DHT22;10902;48.158;8.634;2024-02-23T07:18:49;1.80;99.90
21481;DHT22;10902;48.158;8.634;2024-02-23T07:21:35;1.80;99.90
21481;DHT22;10902;48.158;8.634;2024-02-23T07:24:20;1.70;99.90
21481;DHT22;10902;48.158;8.634;2024-02-23T07:27:06;1.60;99.90
21481;DHT22;10902;48.158;8.634;2024-02-23T07:29:51;1.60;99.90
21481;DHT22;10902;48.158;8.634;2024-02-23T07:32:37;1.50;99.90
21481;DHT22;10902;48.158;8.634;2024-02-23T07:35:23;1.50;99.90
21481;DHT22;10902;48.158;8.634;2024-02-23T07:38:08;1.50;99.90
21481;DHT22;10902;48.158;8.634;2024-02-23T07:40:54;1.50;99.90
21481;DHT22;10902;48.158;8.634;2024-02-23T07:43:40;1.60;99.90
21481;DHT22;10902;48.158;8.634;2024-02-23T07:46:26;1.60;99.90
21481;DHT22;10902;48.158;8.634;2024-02-23T07:49:12;1.70;99.90
21481;DHT22;10902;48.158;8.634;2024-02-23T07:51:57;1.60;99.90
21481;DHT22;10902;48.158;8.634;2024-02-23T07:54:43;1.60;99.90
21481;DHT22;10902;48.158;8.634;2024-02-23T07:57:28;1.50;99.90
21481;DHT22;10902;48.158;8.634;2024-02-23T08:00:14;1.50;99.90
21481;DHT22;10902;48.158;8.634;2024-02-23T08:03:00;1.40;99.90
21481;DHT22;10902;48.158;8.634;2024-02-23T08:05:45;1.40;99.90
21481;DHT22;10902;48.158;8.634;2024-02-23T08:08:31;1.30;99.90
21481;DHT22;10902;48.158;8.634;2024-02-23T08:11:20;1.30;99.90
21481;DHT22;10902;48.158;8.634;2024-02-23T08:14:06;1.40;99.90
21481;DHT22;10902;48.158;8.634;2024-02-23T08:16:51;1.40;99.90
21481;DHT22;10902;48.158;8.634;2024-02-23T08:19:37;1.40;99.90
21481;DHT22;10902;48.158;8.634;2024-02-23T08:22:23;1.30;99.90
21481;DHT22;10902;48.158;8.634;2024-02-23T08:25:09;1.30;99.90
21481;DHT22;10902;48.158;8.634;2024-02-23T08:27:56;1.30;99.90
21481;DHT22;10902;48.158;8.634;2024-02-23T08:30:42;1.30;99.90
21481;DHT22;10902;48.158;8.634;2024-02-23T08:33:27;1.30;99.90
21481;DHT22;10902;48.158;8.634;2024-02-23T08:36:13;1.30;99.90
21481;DHT22;10902;48.158;8.634;2024-02-23T08:38:58;1.30;99.90
21481;DHT22;10902;48.158;8.634;2024-02-23T08:41:44;1.30;99.90
21481;DHT22;10902;48.158;8.634;2024-02-23T08:44:29;1.30;99.90
21481;DHT22;10902;48.158;8.634;2024-02-23T08:47:15;1.30;99.90
21481;DHT22;10902;48.158;8.634;2024-02-23T08:50:01;1.40;99.90
21481;DHT22;10902;48.158;8.634;2024-02-23T08:52:47;1.60;99.90
21481;DHT22;10902;48.158;8.634;2024-02-23T08:55:33;1.70;99.90
21481;DHT22;10902;48.158;8.634;2024-02-23T08:58:19;1.70;99.90
21481;DHT22;10902;48.158;8.634;2024-02-23T09:01:04;1.80;99.90
21481;DHT22;10902;48.158;8.634;2024-02-23T09:03:50;1.80;99.90
21481;DHT22;10902;48.158;8.634;2024-02-23T09:06:36;2.00;99.90
21481;DHT22;10902;48.158;8.634;2024-02-23T09:09:21;2.00;99.90
21481;DHT22;10902;48.158;8.634;2024-02-23T09:12:07;2.10;99.90
21481;DHT22;10902;48.158;8.634;2024-02-23T09:14:55;2.10;99.90
21481;DHT22;10902;48.158;8.634;2024-02-23T09:17:41;2.00;99.90
21481;DHT22;10902;48.158;8.634;2024-02-23T09:20:27;2.10;99.90
21481;DHT22;10902;48.158;8.634;2024-02-23T09:23:12;2.10;99.90
21481;DHT22;10902;48.158;8.634;2024-02-23T09:25:59;2.20;99.90
21481;DHT22;10902;48.158;8.634;2024-02-23T09:28:44;2.30;99.90
21481;DHT22;10902;48.158;8.634;2024-02-23T09:31:30;2.40;99.90
21481;DHT22;10902;48.158;8.634;2024-02-23T09:34:17;2.50;99.90
21481;DHT22;10902;48.158;8.634;2024-02-23T09:37:02;2.50;99.90
21481;DHT22;10902;48.158;8.634;2024-02-23T09:39:48;2.60;99.90
21481;DHT22;10902;48.158;8.634;2024-02-23T09:42:34;2.80;99.90
21481;DHT22;10902;48.158;8.634;2024-02-23T09:45:20;2.80;99.90
21481;DHT22;10902;48.158;8.634;2024-02-23T09:48:07;2.90;99.90
21481;DHT22;10902;48.158;8.634;2024-02-23T09:50:55;2.80;99.90
21481;DHT22;10902;48.158;8.634;2024-02-23T09:53:42;2.90;99.90
21481;DHT22;10902;48.158;8.634;2024-02-23T09:56:28;2.80;99.90
21481;DHT22;10902;48.158;8.634;2024-02-23T09:59:14;2.80;99.90
21481;DHT22;10902;48.158;8.634;2024-02-23T10:02:00;2.70;99.90
21481;DHT22;10902;48.158;8.634;2024-02-23T10:04:48;2.70;99.90
21481;DHT22;10902;48.158;8.634;2024-02-23T10:07:35;2.70;99.90
21481;DHT22;10902;48.158;8.634;2024-02-23T10:10:32;2.70;99.90
21481;DHT22;10902;48.158;8.634;2024-02-23T10:13:19;2.80;99.90
21481;DHT22;10902;48.158;8.634;2024-02-23T10:16:06;2.90;99.90
21481;DHT22;10902;48.158;8.634;2024-02-23T10:18:51;3.00;99.90
21481;DHT22;10902;48.158;8.634;2024-02-23T10:21:37;3.10;99.90
21481;DHT22;10902;48.158;8.634;2024-02-23T10:24:23;3.30;99.90
21481;DHT22;10902;48.158;8.634;2024-02-23T10:27:10;3.30;99.90
21481;DHT22;10902;48.158;8.634;2024-02-23T10:29:56;3.30;99.90
21481;DHT22;10902;48.158;8.634;2024-02-23T10:32:42;3.30;99.90
21481;DHT22;10902;48.158;8.634;2024-02-23T10:35:29;3.30;99.90
21481;DHT22;10902;48.158;8.634;2024-02-23T10:38:17;3.30;99.90
21481;DHT22;10902;48.158;8.634;2024-02-23T10:41:05;3.30;99.90
21481;DHT22;10902;48.158;8.634;2024-02-23T10:43:51;3.40;99.90
21481;DHT22;10902;48.158;8.634;2024-02-23T10:46:38;3.60;99.90
21481;DHT22;10902;48.158;8.634;2024-02-23T10:49:26;3.60;99.90
21481;DHT22;10902;48.158;8.634;2024-02-23T10:52:13;3.70;99.90
21481;DHT22;10902;48.158;8.634;2024-02-23T10:55:01;3.70;99.90
21481;DHT22;10902;48.158;8.634;2024-02-23T10:57:50;3.70;99.90
21481;DHT22;10902;48.158;8.634;2024-02-23T11:00:37;3.80;99.90
21481;DHT22;10902;48.158;8.634;2024-02-23T11:03:22;3.80;99.90
21481;DHT22;10902;48.158;8.634;2024-02-23T11:06:08;3.80;99.90
21481;DHT22;10902;48.158;8.634;2024-02-23T11:09:04;3.80;99.90
21481;DHT22;10902;48.158;8.634;2024-02-23T11:11:54;4.00;99.90
21481;DHT22;10902;48.158;8.634;2024-02-23T11:14:44;4.30;99.90
21481;DHT22;10902;48.158;8.634;2024-02-23T11:17:32;4.40;99.90
21481;DHT22;10902;48.158;8.634;2024-02-23T11:20:18;4.40;99.90
21481;DHT22;10902;48.158;8.634;2024-02-23T11:23:13;4.90;99.90
21481;DHT22;10902;48.158;8.634;2024-02-23T11:26:05;4.70;99.90
21481;DHT22;10902;48.158;8.634;2024-02-23T11:28:52;4.80;99.90
21481;DHT22;10902;48.158;8.634;2024-02-23T11:31:47;4.50;99.90
21481;DHT22;10902;48.158;8.634;2024-02-23T11:34:34;4.30;99.90
21481;DHT22;10902;48.158;8.634;2024-02-23T11:37:20;4.70;99.90
21481;DHT22;10902;48.158;8.634;2024-02-23T11:40:07;4.70;99.90
21481;DHT22;10902;48.158;8.634;2024-02-23T11:42:54;5.10;99.90
21481;DHT22;10902;48.158;8.634;2024-02-23T11:45:40;4.90;99.90
21481;DHT22;10902;48.158;8.634;2024-02-23T11:48:26;5.30;99.90
21481;DHT22;10902;48.158;8.634;2024-02-23T11:51:15;5.80;99.90
21481;DHT22;10902;48.158;8.634;2024-02-23T11:54:01;6.10;99.90
21481;DHT22;10902;48.158;8.634;2024-02-23T11:56:48;5.50;99.90
21481;DHT22;10902;48.158;8.634;2024-02-23T11:59:34;4.70;99.90
21481;DHT22;10902;48.158;8.634;2024-02-23T12:02:21;4.60;99.90
21481;DHT22;10902;48.158;8.634;2024-02-23T12:05:06;4.60;99.90
21481;DHT22;10902;48.158;8.634;2024-02-23T12:07:52;4.60;99.90
21481;DHT22;10902;48.158;8.634;2024-02-23T12:10:38;4.40;99.90
21481;DHT22;10902;48.158;8.634;2024-02-23T12:13:24;4.40;99.90
21481;DHT22;10902;48.158;8.634;2024-02-23T12:16:10;4.30;99.90
21481;DHT22;10902;48.158;8.634;2024-02-23T12:18:56;4.30;99.90
21481;DHT22;10902;48.158;8.634;2024-02-23T12:21:45;4.50;99.90
21481;DHT22;10902;48.158;8.634;2024-02-23T12:24:31;4.60;99.90
21481;DHT22;10902;48.158;8.634;2024-02-23T12:27:17;4.70;99.90
21481;DHT22;10902;48.158;8.634;2024-02-23T12:30:04;4.70;99.90
21481;DHT22;10902;48.158;8.634;2024-02-23T12:32:50;4.60;99.90
21481;DHT22;10902;48.158;8.634;2024-02-23T12:35:35;4.70;99.90
21481;DHT22;10902;48.158;8.634;2024-02-23T12:38:22;5.10;99.90
21481;DHT22;10902;48.158;8.634;2024-02-23T12:41:08;5.00;99.90
21481;DHT22;10902;48.158;8.634;2024-02-23T12:43:53;5.20;99.90
21481;DHT22;10902;48.158;8.634;2024-02-23T12:46:39;5.70;99.90
21481;DHT22;10902;48.158;8.634;2024-02-23T12:49:25;5.90;99.90
21481;DHT22;10902;48.158;8.634;2024-02-23T12:52:12;6.00;99.90
21481;DHT22;10902;48.158;8.634;2024-02-23T12:54:57;5.90;99.90
21481;DHT22;10902;48.158;8.634;2024-02-23T12:57:43;5.50;99.90
21481;DHT22;10902;48.158;8.634;2024-02-23T13:00:28;5.10;99.90
21481;DHT22;10902;48.158;8.634;2024-02-23T13:03:14;5.10;99.90
21481;DHT22;10902;48.158;8.634;2024-02-23T13:06:00;5.10;99.90
21481;DHT22;10902;48.158;8.634;2024-02-23T13:08:45;5.10;99.90
21481;DHT22;10902;48.158;8.634;2024-02-23T13:11:31;5.20;99.90
21481;DHT22;10902;48.158;8.634;2024-02-23T13:14:17;5.20;99.90
21481;DHT22;10902;48.158;8.634;2024-02-23T13:17:03;5.00;99.90
21481;DHT22;10902;48.158;8.634;2024-02-23T13:19:49;4.80;99.90
21481;DHT22;10902;48.158;8.634;2024-02-23T13:22:34;4.80;99.90
21481;DHT22;10902;48.158;8.634;2024-02-23T13:25:20;4.90;99.90
21481;DHT22;10902;48.158;8.634;2024-02-23T13:28:06;5.00;99.90
21481;DHT22;10902;48.158;8.634;2024-02-23T13:30:52;5.00;99.90
21481;DHT22;10902;48.158;8.634;2024-02-23T13:33:38;5.20;99.90
21481;DHT22;10902;48.158;8.634;2024-02-23T13:36:23;5.60;99.90
21481;DHT22;10902;48.158;8.634;2024-02-23T13:39:09;6.50;99.90
21481;DHT22;10902;48.158;8.634;2024-02-23T13:41:55;6.60;99.90
21481;DHT22;10902;48.158;8.634;2024-02-23T13:44:40;7.00;99.90
21481;DHT22;10902;48.158;8.634;2024-02-23T13:47:26;6.40;99.90
21481;DHT22;10902;48.158;8.634;2024-02-23T13:50:11;6.30;99.90
21481;DHT22;10902;48.158;8.634;2024-02-23T13:52:57;5.90;99.90
21481;DHT22;10902;48.158;8.634;2024-02-23T13:55:42;6.00;99.90
21481;DHT22;10902;48.158;8.634;2024-02-23T13:58:29;6.30;99.90
21481;DHT22;10902;48.158;8.634;2024-02-23T14:01:15;6.30;99.90
21481;DHT22;10902;48.158;8.634;2024-02-23T14:04:06;5.90;99.90
21481;DHT22;10902;48.158;8.634;2024-02-23T14:06:52;5.70;99.90
21481;DHT22;10902;48.158;8.634;2024-02-23T14:09:38;5.40;99.90
21481;DHT22;10902;48.158;8.634;2024-02-23T14:12:23;5.80;99.90
21481;DHT22;10902;48.158;8.634;2024-02-23T14:15:09;5.90;99.90
21481;DHT22;10902;48.158;8.634;2024-02-23T14:17:55;5.80;99.90
21481;DHT22;10902;48.158;8.634;2024-02-23T14:20:41;5.60;99.90
21481;DHT22;10902;48.158;8.634;2024-02-23T14:23:27;5.80;99.90
21481;DHT22;10902;48.158;8.634;2024-02-23T14:26:13;5.60;99.90
21481;DHT22;10902;48.158;8.634;2024-02-23T14:28:58;5.90;99.90
21481;DHT22;10902;48.158;8.634;2024-02-23T14:31:44;6.00;99.90
21481;DHT22;10902;48.158;8.634;2024-02-23T14:34:30;6.00;99.90
21481;DHT22;10902;48.158;8.634;2024-02-23T14:37:18;6.00;99.90
21481;DHT22;10902;48.158;8.634;2024-02-23T14:40:04;5.80;99.90
21481;DHT22;10902;48.158;8.634;2024-02-23T14:42:50;5.60;99.90
21481;DHT22;10902;48.158;8.634;2024-02-23T14:45:36;5.50;99.90
21481;DHT22;10902;48.158;8.634;2024-02-23T14:48:21;5.60;99.90
21481;DHT22;10902;48.158;8.634;2024-02-23T14:51:07;5.60;99.90
21481;DHT22;10902;48.158;8.634;2024-02-23T14:53:54;5.50;99.90
21481;DHT22;10902;48.158;8.634;2024-02-23T14:56:40;5.30;99.90
21481;DHT22;10902;48.158;8.634;2024-02-23T14:59:26;5.50;99.90
21481;DHT22;10902;48.158;8.634;2024-02-23T15:02:22;5.90;99.90
21481;DHT22;10902;48.158;8.634;2024-02-23T15:05:08;6.20;99.90
21481;DHT22;10902;48.158;8.634;2024-02-23T15:07:53;6.70;99.90
21481;DHT22;10902;48.158;8.634;2024-02-23T15:10:39;7.60;99.90
21481;DHT22;10902;48.158;8.634;2024-02-23T15:13:25;7.40;99.90
21481;DHT22;10902;48.158;8.634;2024-02-23T15:16:10;6.80;99.90
21481;DHT22;10902;48.158;8.634;2024-02-23T15:18:56;5.70;99.90
21481;DHT22;10902;48.158;8.634;2024-02-23T15:21:43;5.60;99.90
21481;DHT22;10902;48.158;8.634;2024-02-23T15:24:30;5.20;99.90
21481;DHT22;10902;48.158;8.634;2024-02-23T15:27:16;5.00;99.90
21481;DHT22;10902;48.158;8.634;2024-02-23T15:30:02;4.90;99.90
21481;DHT22;10902;48.158;8.634;2024-02-23T15:32:48;4.90;99.90
21481;DHT22;10902;48.158;8.634;2024-02-23T15:35:34;4.90;99.90
21481;DHT22;10902;48.158;8.634;2024-02-23T15:38:20;4.80;99.90
21481;DHT22;10902;48.158;8.634;2024-02-23T15:41:05;4.80;99.90
21481;DHT22;10902;48.158;8.634;2024-02-23T15:43:51;4.90;99.90
21481;DHT22;10902;48.158;8.634;2024-02-23T15:46:36;4.80;99.90
21481;DHT22;10902;48.158;8.634;2024-02-23T15:49:22;4.80;99.90
21481;DHT22;10902;48.158;8.634;2024-02-23T15:52:09;4.80;99.90
21481;DHT22;10902;48.158;8.634;2024-02-23T15:54:55;4.70;99.90
21481;DHT22;10902;48.158;8.634;2024-02-23T15:57:41;4.70;99.90
21481;DHT22;10902;48.158;8.634;2024-02-23T16:00:28;4.80;99.90
21481;DHT22;10902;48.158;8.634;2024-02-23T16:03:13;5.30;99.90
21481;DHT22;10902;48.158;8.634;2024-02-23T16:06:02;6.40;99.90
21481;DHT22;10902;48.158;8.634;2024-02-23T16:08:47;6.40;99.90
21481;DHT22;10902;48.158;8.634;2024-02-23T16:11:34;6.50;99.90
21481;DHT22;10902;48.158;8.634;2024-02-23T16:14:20;6.30;99.90
21481;DHT22;10902;48.158;8.634;2024-02-23T16:17:05;5.30;99.90
21481;DHT22;10902;48.158;8.634;2024-02-23T16:19:51;5.10;99.90
21481;DHT22;10902;48.158;8.634;2024-02-23T16:22:36;5.10;99.90
21481;DHT22;10902;48.158;8.634;2024-02-23T16:25:22;5.20;99.90
21481;DHT22;10902;48.158;8.634;2024-02-23T16:28:08;5.40;99.90
21481;DHT22;10902;48.158;8.634;2024-02-23T16:30:53;5.30;99.90
21481;DHT22;10902;48.158;8.634;2024-02-23T16:33:39;5.30;99.90
21481;DHT22;10902;48.158;8.634;2024-02-23T16:36:24;4.70;99.90
21481;DHT22;10902;48.158;8.634;2024-02-23T16:39:10;4.20;99.90
21481;DHT22;10902;48.158;8.634;2024-02-23T16:41:56;3.80;99.90
21481;DHT22;10902;48.158;8.634;2024-02-23T16:44:42;3.50;99.90
21481;DHT22;10902;48.158;8.634;2024-02-23T16:47:27;3.40;99.90
21481;DHT22;10902;48.158;8.634;2024-02-23T16:50:14;3.20;99.90
21481;DHT22;10902;48.158;8.634;2024-02-23T16:52:59;3.10;99.90
21481;DHT22;10902;48.158;8.634;2024-02-23T16:55:45;3.00;99.90
21481;DHT22;10902;48.158;8.634;2024-02-23T16:58:30;2.90;99.90
21481;DHT22;10902;48.158;8.634;2024-02-23T17:01:21;2.80;99.90
21481;DHT22;10902;48.158;8.634;2024-02-23T17:04:06;2.70;99.90
21481;DHT22;10902;48.158;8.634;2024-02-23T17:06:52;2.80;99.90
21481;DHT22;10902;48.158;8.634;2024-02-23T17:09:38;2.90;99.90
21481;DHT22;10902;48.158;8.634;2024-02-23T17:12:24;3.00;99.90
21481;DHT22;10902;48.158;8.634;2024-02-23T17:15:12;3.10;99.90
21481;DHT22;10902;48.158;8.634;2024-02-23T17:17:58;3.10;99.90
21481;DHT22;10902;48.158;8.634;2024-02-23T17:20:43;3.10;99.90
21481;DHT22;10902;48.158;8.634;2024-02-23T17:23:29;3.20;99.90
21481;DHT22;10902;48.158;8.634;2024-02-23T17:26:15;3.00;99.90
21481;DHT22;10902;48.158;8.634;2024-02-23T17:29:01;2.80;99.90
21481;DHT22;10902;48.158;8.634;2024-02-23T17:31:47;2.70;99.90
21481;DHT22;10902;48.158;8.634;2024-02-23T17:34:32;2.70;99.90
21481;DHT22;10902;48.158;8.634;2024-02-23T17:37:18;2.60;99.90
21481;DHT22;10902;48.158;8.634;2024-02-23T17:40:05;2.50;99.90
21481;DHT22;10902;48.158;8.634;2024-02-23T17:42:50;2.40;99.90
21481;DHT22;10902;48.158;8.634;2024-02-23T17:45:36;2.40;99.90